sensor_id;sensor_type;location;lat;lon;timestamp;pressure;altitude;pressure_sealevel;temperature;humidity
70968;BME280;58629;48.808;8.820;2023-05-19T00:01:05;97609.50;;;8.92;81.44
70968;BME280;58629;48.808;8.820;2023-05-19T00:03:32;97611.38;;;8.95;82.43
70968;BME280;58629;48.808;8.820;2023-05-19T00:06:01;97609.09;;;9.00;84.16
70968;BME280;58629;48.808;8.820;2023-05-19T00:08:29;97609.09;;;9.00;80.28
70968;BME280;58629;48.808;8.820;2023-05-19T00:10:55;97615.88;;;9.01;79.75
70968;BME280;58629;48.808;8.820;2023-05-19T00:13:21;97613.25;;;9.01;79.75
70968;BME280;58629;48.808;8.820;2023-05-19T00:15:47;97614.00;;;8.98;80.10
70968;BME280;58629;48.808;8.820;2023-05-19T00:18:12;97609.84;;;9.01;79.04
70968;BME280;58629;48.808;8.820;2023-05-19T00:20:38;97605.34;;;8.94;81.09
70968;BME280;58629;48.808;8.820;2023-05-19T00:23:03;97612.13;;;8.92;80.89
70968;BME280;58629;48.808;8.820;2023-05-19T00:25:29;97605.38;;;8.84;81.46
70968;BME280;58629;48.808;8.820;2023-05-19T00:27:54;97607.63;;;8.82;79.93
70968;BME280;58629;48.808;8.820;2023-05-19T00:30:19;97601.59;;;8.77;80.23
70968;BME280;58629;48.808;8.820;2023-05-19T00:32:46;97598.22;;;8.81;79.07
70968;BME280;58629;48.808;8.820;2023-05-19T00:35:13;97606.13;;;8.84;79.70
70968;BME280;58629;48.808;8.820;2023-05-19T00:37:38;97600.47;;;8.82;80.89
70968;BME280;58629;48.808;8.820;2023-05-19T00:40:04;97596.34;;;8.81;78.95
70968;BME280;58629;48.808;8.820;2023-05-19T00:42:31;97596.72;;;8.83;80.31
70968;BME280;58629;48.808;8.820;2023-05-19T00:44:56;97599.34;;;8.76;80.18
70968;BME280;58629;48.808;8.820;2023-05-19T00:47:22;97590.72;;;8.65;80.79
70968;BME280;58629;48.808;8.820;2023-05-19T00:49:47;97598.25;;;8.66;81.25
70968;BME280;58629;48.808;8.820;2023-05-19T00:52:12;97597.50;;;8.62;81.60
70968;BME280;58629;48.808;8.820;2023-05-19T00:54:38;97591.09;;;8.60;82.56
70968;BME280;58629;48.808;8.820;2023-05-19T00:57:03;97590.72;;;8.58;81.30
70968;BME280;58629;48.808;8.820;2023-05-19T00:59:29;97586.59;;;8.50;84.26
70968;BME280;58629;48.808;8.820;2023-05-19T01:01:54;97590.41;;;8.35;87.38
70968;BME280;58629;48.808;8.820;2023-05-19T01:04:20;97584.78;;;8.29;85.94
70968;BME280;58629;48.808;8.820;2023-05-19T01:06:46;97589.28;;;8.36;86.03
70968;BME280;58629;48.808;8.820;2023-05-19T01:09:12;97591.94;;;8.36;86.06
70968;BME280;58629;48.808;8.820;2023-05-19T01:11:37;97589.28;;;8.39;86.05
70968;BME280;58629;48.808;8.820;2023-05-19T01:14:03;97584.34;;;8.38;84.33
70968;BME280;58629;48.808;8.820;2023-05-19T01:16:39;97598.31;;;8.35;83.53
70968;BME280;58629;48.808;8.820;2023-05-19T01:19:39;97592.28;;;8.41;82.53
70968;BME280;58629;48.808;8.820;2023-05-19T01:25:04;97594.16;;;8.48;82.16
70968;BME280;58629;48.808;8.820;2023-05-19T01:30:39;97600.94;;;8.52;83.06
70968;BME280;58629;48.808;8.820;2023-05-19T01:33:10;97592.63;;;8.61;85.45
70968;BME280;58629;48.808;8.820;2023-05-19T01:35:39;97595.66;;;8.49;83.96
70968;BME280;58629;48.808;8.820;2023-05-19T01:38:08;97587.75;;;8.42;84.88
70968;BME280;58629;48.808;8.820;2023-05-19T01:40:35;97584.78;;;8.29;87.74
70968;BME280;58629;48.808;8.820;2023-05-19T01:43:02;97594.94;;;8.24;88.91
70968;BME280;58629;48.808;8.820;2023-05-19T01:45:28;97589.28;;;8.25;88.44
70968;BME280;58629;48.808;8.820;2023-05-19T01:47:56;97587.75;;;8.21;88.10
70968;BME280;58629;48.808;8.820;2023-05-19T01:50:22;97592.28;;;8.17;87.38
70968;BME280;58629;48.808;8.820;2023-05-19T01:52:48;97594.91;;;8.17;87.19
70968;BME280;58629;48.808;8.820;2023-05-19T01:55:13;97599.06;;;8.07;86.55
70968;BME280;58629;48.808;8.820;2023-05-19T01:57:49;97593.81;;;8.04;85.99
70968;BME280;58629;48.808;8.820;2023-05-19T02:00:37;97591.16;;;8.07;85.29
70968;BME280;58629;48.808;8.820;2023-05-19T02:03:27;97594.94;;;8.03;85.80
70968;BME280;58629;48.808;8.820;2023-05-19T02:06:11;97596.06;;;8.02;84.46
70968;BME280;58629;48.808;8.820;2023-05-19T02:08:43;97595.28;;;8.08;84.20
70968;BME280;58629;48.808;8.820;2023-05-19T02:11:36;97597.19;;;8.08;83.70
70968;BME280;58629;48.808;8.820;2023-05-19T02:14:12;97592.66;;;8.05;84.22
70968;BME280;58629;48.808;8.820;2023-05-19T02:16:44;97592.69;;;7.94;85.45
70968;BME280;58629;48.808;8.820;2023-05-19T02:19:38;97589.28;;;7.94;85.05
70968;BME280;58629;48.808;8.820;2023-05-19T02:22:04;97598.31;;;7.93;83.84
70968;BME280;58629;48.808;8.820;2023-05-19T02:24:30;97593.81;;;7.89;84.69
70968;BME280;58629;48.808;8.820;2023-05-19T02:26:55;97597.22;;;7.90;85.53
70968;BME280;58629;48.808;8.820;2023-05-19T02:29:20;97596.44;;;7.89;84.89
70968;BME280;58629;48.808;8.820;2023-05-19T02:31:46;97597.94;;;7.83;85.22
70968;BME280;58629;48.808;8.820;2023-05-19T02:34:11;97598.31;;;7.85;84.42
70968;BME280;58629;48.808;8.820;2023-05-19T02:36:39;97594.56;;;7.83;83.74
70968;BME280;58629;48.808;8.820;2023-05-19T02:39:09;97599.06;;;7.79;84.38
70968;BME280;58629;48.808;8.820;2023-05-19T02:41:35;97588.16;;;7.84;84.29
70968;BME280;58629;48.808;8.820;2023-05-19T02:44:00;97590.78;;;7.87;84.36
70968;BME280;58629;48.808;8.820;2023-05-19T02:46:25;97586.66;;;7.97;86.12
70968;BME280;58629;48.808;8.820;2023-05-19T02:48:51;97584.78;;;7.98;85.81
70968;BME280;58629;48.808;8.820;2023-05-19T02:51:16;97578.34;;;7.99;85.43
70968;BME280;58629;48.808;8.820;2023-05-19T02:53:42;97581.72;;;8.06;87.44
70968;BME280;58629;48.808;8.820;2023-05-19T02:56:07;97573.84;;;8.10;87.62
70968;BME280;58629;48.808;8.820;2023-05-19T02:58:32;97575.72;;;8.13;88.19
70968;BME280;58629;48.808;8.820;2023-05-19T03:00:58;97581.38;;;8.11;85.29
70968;BME280;58629;48.808;8.820;2023-05-19T03:03:23;97588.50;;;8.14;89.54
70968;BME280;58629;48.808;8.820;2023-05-19T03:05:48;97592.66;;;8.15;91.04
70968;BME280;58629;48.808;8.820;2023-05-19T03:08:14;97587.03;;;8.13;91.49
70968;BME280;58629;48.808;8.820;2023-05-19T03:10:39;97582.13;;;8.05;90.94
70968;BME280;58629;48.808;8.820;2023-05-19T03:13:04;97581.38;;;8.01;91.56
70968;BME280;58629;48.808;8.820;2023-05-19T03:15:30;97579.47;;;8.08;92.38
70968;BME280;58629;48.808;8.820;2023-05-19T03:17:56;97580.63;;;8.04;92.42
70968;BME280;58629;48.808;8.820;2023-05-19T03:20:21;97576.47;;;7.99;90.63
70968;BME280;58629;48.808;8.820;2023-05-19T03:22:48;97569.69;;;7.87;92.65
70968;BME280;58629;48.808;8.820;2023-05-19T03:25:13;97582.88;;;7.77;93.09
70968;BME280;58629;48.808;8.820;2023-05-19T03:27:39;97575.72;;;7.74;93.04
70968;BME280;58629;48.808;8.820;2023-05-19T03:30:05;97572.69;;;7.65;92.97
70968;BME280;58629;48.808;8.820;2023-05-19T03:32:30;97569.69;;;7.59;95.11
70968;BME280;58629;48.808;8.820;2023-05-19T03:34:57;97569.31;;;7.54;94.58
70968;BME280;58629;48.808;8.820;2023-05-19T03:37:22;97579.09;;;7.57;95.13
70968;BME280;58629;48.808;8.820;2023-05-19T03:39:47;97580.59;;;7.58;95.66
70968;BME280;58629;48.808;8.820;2023-05-19T03:42:13;97577.97;;;7.58;96.87
70968;BME280;58629;48.808;8.820;2023-05-19T03:44:38;97576.84;;;7.52;96.87
70968;BME280;58629;48.808;8.820;2023-05-19T03:47:03;97575.34;;;7.54;97.31
70968;BME280;58629;48.808;8.820;2023-05-19T03:49:29;97583.59;;;7.53;96.67
70968;BME280;58629;48.808;8.820;2023-05-19T03:51:54;97587.38;;;7.55;96.34
70968;BME280;58629;48.808;8.820;2023-05-19T03:54:19;97586.63;;;7.55;97.05
70968;BME280;58629;48.808;8.820;2023-05-19T03:56:46;97582.50;;;7.64;97.15
70968;BME280;58629;48.808;8.820;2023-05-19T03:59:12;97589.66;;;7.71;95.88
70968;BME280;58629;48.808;8.820;2023-05-19T04:01:37;97588.53;;;7.75;95.46
70968;BME280;58629;48.808;8.820;2023-05-19T04:04:03;97591.91;;;7.86;95.79
70968;BME280;58629;48.808;8.820;2023-05-19T04:06:28;97595.69;;;7.89;94.66
70968;BME280;58629;48.808;8.820;2023-05-19T04:08:53;97596.06;;;7.91;93.99
70968;BME280;58629;48.808;8.820;2023-05-19T04:11:19;97594.94;;;7.88;94.78
70968;BME280;58629;48.808;8.820;2023-05-19T04:13:45;97591.16;;;7.89;93.36
70968;BME280;58629;48.808;8.820;2023-05-19T04:16:10;97595.69;;;7.96;93.91
70968;BME280;58629;48.808;8.820;2023-05-19T04:18:36;97594.19;;;7.92;91.04
70968;BME280;58629;48.808;8.820;2023-05-19T04:21:01;97591.16;;;7.89;91.01
70968;BME280;58629;48.808;8.820;2023-05-19T04:23:26;97584.75;;;7.90;92.06
70968;BME280;58629;48.808;8.820;2023-05-19T04:25:52;97587.38;;;8.05;92.74
70968;BME280;58629;48.808;8.820;2023-05-19T04:28:18;97582.47;;;8.10;92.03
70968;BME280;58629;48.808;8.820;2023-05-19T04:30:43;97584.00;;;8.01;92.41
70968;BME280;58629;48.808;8.820;2023-05-19T04:33:11;97588.16;;;8.02;91.76
70968;BME280;58629;48.808;8.820;2023-05-19T04:35:37;97597.94;;;8.05;90.27
70968;BME280;58629;48.808;8.820;2023-05-19T04:38:04;97597.94;;;8.05;90.02
70968;BME280;58629;48.808;8.820;2023-05-19T04:40:29;97595.31;;;8.12;88.94
70968;BME280;58629;48.808;8.820;2023-05-19T04:42:55;97594.53;;;8.18;88.59
70968;BME280;58629;48.808;8.820;2023-05-19T04:45:21;97590.03;;;8.33;90.47
70968;BME280;58629;48.808;8.820;2023-05-19T04:47:47;97587.00;;;8.38;88.16
70968;BME280;58629;48.808;8.820;2023-05-19T04:50:12;97586.25;;;8.41;87.50
70968;BME280;58629;48.808;8.820;2023-05-19T04:52:38;97586.56;;;8.71;91.08
70968;BME280;58629;48.808;8.820;2023-05-19T04:55:04;97581.53;;;9.05;92.16
70968;BME280;58629;48.808;8.820;2023-05-19T04:57:29;97589.75;;;9.21;88.31
70968;BME280;58629;48.808;8.820;2023-05-19T04:59:55;97593.50;;;9.27;88.31
70968;BME280;58629;48.808;8.820;2023-05-19T05:02:27;97589.06;;;9.06;87.58
70968;BME280;58629;48.808;8.820;2023-05-19T05:04:52;97589.44;;;9.05;89.40
70968;BME280;58629;48.808;8.820;2023-05-19T05:07:22;97594.56;;;9.40;93.17
70968;BME280;58629;48.808;8.820;2023-05-19T05:09:47;97591.66;;;9.79;91.89
70968;BME280;58629;48.808;8.820;2023-05-19T05:12:13;97592.94;;;10.11;90.11
70968;BME280;58629;48.808;8.820;2023-05-19T05:14:39;97588.47;;;10.45;89.25
70968;BME280;58629;48.808;8.820;2023-05-19T05:17:05;97591.13;;;10.79;86.93
70968;BME280;58629;48.808;8.820;2023-05-19T05:19:32;97585.88;;;11.06;85.08
70968;BME280;58629;48.808;8.820;2023-05-19T05:21:58;97588.72;;;11.22;82.41
70968;BME280;58629;48.808;8.820;2023-05-19T05:24:23;97582.88;;;11.04;77.86
70968;BME280;58629;48.808;8.820;2023-05-19T05:26:49;97585.94;;;11.32;80.09
70968;BME280;58629;48.808;8.820;2023-05-19T05:29:14;97582.63;;;11.52;79.65
70968;BME280;58629;48.808;8.820;2023-05-19T05:31:39;97586.59;;;11.67;78.01
70968;BME280;58629;48.808;8.820;2023-05-19T05:34:05;97592.03;;;11.83;77.64
70968;BME280;58629;48.808;8.820;2023-05-19T05:36:30;97587.69;;;11.96;78.22
70968;BME280;58629;48.808;8.820;2023-05-19T05:38:56;97587.47;;;12.10;76.46
70968;BME280;58629;48.808;8.820;2023-05-19T05:41:21;97587.78;;;11.89;75.91
70968;BME280;58629;48.808;8.820;2023-05-19T05:43:46;97578.81;;;12.06;76.13
70968;BME280;58629;48.808;8.820;2023-05-19T05:46:12;97592.19;;;12.22;75.67
70968;BME280;58629;48.808;8.820;2023-05-19T05:48:37;97593.16;;;12.32;74.51
70968;BME280;58629;48.808;8.820;2023-05-19T05:51:04;97597.19;;;12.16;73.06
70968;BME280;58629;48.808;8.820;2023-05-19T05:53:32;97596.84;;;12.38;72.71
70968;BME280;58629;48.808;8.820;2023-05-19T05:55:58;97595.50;;;12.49;71.40
70968;BME280;58629;48.808;8.820;2023-05-19T05:58:24;97592.97;;;12.62;71.16
70968;BME280;58629;48.808;8.820;2023-05-19T06:00:50;97594.22;;;12.57;69.80
70968;BME280;58629;48.808;8.820;2023-05-19T06:03:17;97590.38;;;12.58;67.05
70968;BME280;58629;48.808;8.820;2023-05-19T06:05:45;97591.00;;;12.66;69.98
70968;BME280;58629;48.808;8.820;2023-05-19T06:08:11;97589.94;;;12.63;65.74
70968;BME280;58629;48.808;8.820;2023-05-19T06:10:36;97584.53;;;12.86;69.18
70968;BME280;58629;48.808;8.820;2023-05-19T06:13:02;97589.75;;;13.13;69.39
70968;BME280;58629;48.808;8.820;2023-05-19T06:15:28;97589.97;;;13.38;68.33
70968;BME280;58629;48.808;8.820;2023-05-19T06:17:53;97584.09;;;13.47;63.67
70968;BME280;58629;48.808;8.820;2023-05-19T06:20:18;97584.94;;;13.76;65.74
70968;BME280;58629;48.808;8.820;2023-05-19T06:22:44;97579.97;;;13.78;62.88
70968;BME280;58629;48.808;8.820;2023-05-19T06:25:09;97582.78;;;13.87;61.45
70968;BME280;58629;48.808;8.820;2023-05-19T06:27:34;97585.69;;;13.76;61.74
70968;BME280;58629;48.808;8.820;2023-05-19T06:30:00;97578.13;;;14.07;63.71
70968;BME280;58629;48.808;8.820;2023-05-19T06:32:25;97577.84;;;14.18;63.33
70968;BME280;58629;48.808;8.820;2023-05-19T06:34:51;97576.88;;;14.12;63.32
70968;BME280;58629;48.808;8.820;2023-05-19T06:37:22;97578.53;;;13.73;61.07
70968;BME280;58629;48.808;8.820;2023-05-19T06:39:51;97580.94;;;13.68;61.46
70968;BME280;58629;48.808;8.820;2023-05-19T06:42:18;97577.72;;;13.60;61.73
70968;BME280;58629;48.808;8.820;2023-05-19T06:44:48;97589.56;;;13.40;62.31
70968;BME280;58629;48.808;8.820;2023-05-19T06:47:15;97581.78;;;13.49;63.92
70968;BME280;58629;48.808;8.820;2023-05-19T06:49:40;97586.75;;;13.47;61.65
70968;BME280;58629;48.808;8.820;2023-05-19T06:52:06;97585.38;;;13.74;61.94
70968;BME280;58629;48.808;8.820;2023-05-19T06:54:31;97580.78;;;13.75;62.23
70968;BME280;58629;48.808;8.820;2023-05-19T06:56:57;97584.28;;;14.04;62.63
70968;BME280;58629;48.808;8.820;2023-05-19T06:59:22;97577.44;;;14.03;62.68
70968;BME280;58629;48.808;8.820;2023-05-19T07:01:47;97576.69;;;14.35;60.96
70968;BME280;58629;48.808;8.820;2023-05-19T07:04:13;97582.31;;;14.53;60.98
70968;BME280;58629;48.808;8.820;2023-05-19T07:06:38;97575.75;;;14.70;61.18
70968;BME280;58629;48.808;8.820;2023-05-19T07:09:03;97579.47;;;15.01;60.36
70968;BME280;58629;48.808;8.820;2023-05-19T07:11:29;97576.88;;;14.85;59.15
70968;BME280;58629;48.808;8.820;2023-05-19T07:13:55;97587.22;;;14.96;59.63
70968;BME280;58629;48.808;8.820;2023-05-19T07:16:20;97576.84;;;15.39;59.36
70968;BME280;58629;48.808;8.820;2023-05-19T07:18:45;97586.59;;;15.58;58.90
70968;BME280;58629;48.808;8.820;2023-05-19T07:21:10;97570.97;;;15.31;57.43
70968;BME280;58629;48.808;8.820;2023-05-19T07:23:36;97575.47;;;15.59;57.03
70968;BME280;58629;48.808;8.820;2023-05-19T07:26:01;97570.56;;;15.83;57.52
70968;BME280;58629;48.808;8.820;2023-05-19T07:28:26;97563.53;;;15.64;55.73
70968;BME280;58629;48.808;8.820;2023-05-19T07:30:52;97566.59;;;15.88;56.17
70968;BME280;58629;48.808;8.820;2023-05-19T07:33:17;97573.53;;;15.98;55.59
70968;BME280;58629;48.808;8.820;2023-05-19T07:35:42;97567.13;;;15.95;56.72
70968;BME280;58629;48.808;8.820;2023-05-19T07:38:09;97566.66;;;16.09;56.41
70968;BME280;58629;48.808;8.820;2023-05-19T07:40:34;97564.44;;;15.95;55.86
70968;BME280;58629;48.808;8.820;2023-05-19T07:43:00;97567.28;;;16.26;55.52
70968;BME280;58629;48.808;8.820;2023-05-19T07:45:25;97562.66;;;16.26;54.57
70968;BME280;58629;48.808;8.820;2023-05-19T07:47:51;97572.41;;;16.55;55.10
70968;BME280;58629;48.808;8.820;2023-05-19T07:50:17;97574.34;;;16.54;54.82
70968;BME280;58629;48.808;8.820;2023-05-19T07:52:42;97565.72;;;16.03;54.90
70968;BME280;58629;48.808;8.820;2023-05-19T07:55:07;97561.53;;;15.43;55.86
70968;BME280;58629;48.808;8.820;2023-05-19T07:57:33;97565.31;;;15.17;56.52
70968;BME280;58629;48.808;8.820;2023-05-19T07:59:58;97563.47;;;15.01;57.09
70968;BME280;58629;48.808;8.820;2023-05-19T08:02:23;97566.47;;;15.03;58.08
70968;BME280;58629;48.808;8.820;2023-05-19T08:04:48;97562.28;;;15.02;58.82
70968;BME280;58629;48.808;8.820;2023-05-19T08:07:14;97563.38;;;15.17;58.88
70968;BME280;58629;48.808;8.820;2023-05-19T08:09:39;97551.16;;;15.45;59.46
70968;BME280;58629;48.808;8.820;2023-05-19T08:12:04;97557.66;;;15.56;59.74
70968;BME280;58629;48.808;8.820;2023-05-19T08:14:30;97548.34;;;15.61;59.18
70968;BME280;58629;48.808;8.820;2023-05-19T08:16:57;97557.13;;;15.49;57.96
70968;BME280;58629;48.808;8.820;2023-05-19T08:19:22;97546.56;;;15.58;58.71
70968;BME280;58629;48.808;8.820;2023-05-19T08:21:47;97552.19;;;15.22;57.17
70968;BME280;58629;48.808;8.820;2023-05-19T08:24:13;97549.25;;;14.92;57.19
70968;BME280;58629;48.808;8.820;2023-05-19T08:26:39;97543.19;;;14.91;57.18
70968;BME280;58629;48.808;8.820;2023-05-19T08:29:04;97546.03;;;14.84;58.66
70968;BME280;58629;48.808;8.820;2023-05-19T08:31:30;97545.22;;;14.58;58.91
70968;BME280;58629;48.808;8.820;2023-05-19T08:33:55;97542.13;;;14.60;59.53
70968;BME280;58629;48.808;8.820;2023-05-19T08:36:20;97542.22;;;14.44;58.65
70968;BME280;58629;48.808;8.820;2023-05-19T08:38:46;97547.38;;;14.35;60.34
70968;BME280;58629;48.808;8.820;2023-05-19T08:41:11;97537.22;;;14.46;60.29
70968;BME280;58629;48.808;8.820;2023-05-19T08:43:37;97537.53;;;14.48;60.08
70968;BME280;58629;48.808;8.820;2023-05-19T08:46:03;97543.22;;;14.18;59.18
70968;BME280;58629;48.808;8.820;2023-05-19T08:48:31;97535.47;;;14.23;61.60
70968;BME280;58629;48.808;8.820;2023-05-19T08:51:14;97544.63;;;14.38;61.61
70968;BME280;58629;48.808;8.820;2023-05-19T08:53:47;97540.97;;;14.32;59.42
70968;BME280;58629;48.808;8.820;2023-05-19T08:56:16;97539.28;;;14.38;61.20
70968;BME280;58629;48.808;8.820;2023-05-19T08:58:44;97543.75;;;14.57;60.44
70968;BME280;58629;48.808;8.820;2023-05-19T09:01:13;97542.94;;;14.86;60.19
70968;BME280;58629;48.808;8.820;2023-05-19T09:03:45;97537.59;;;14.73;59.30
70968;BME280;58629;48.808;8.820;2023-05-19T09:06:13;97542.81;;;14.76;59.51
70968;BME280;58629;48.808;8.820;2023-05-19T09:08:39;97537.31;;;14.96;59.98
70968;BME280;58629;48.808;8.820;2023-05-19T09:11:05;97530.28;;;15.02;58.74
70968;BME280;58629;48.808;8.820;2023-05-19T09:13:30;97534.13;;;15.14;60.38
70968;BME280;58629;48.808;8.820;2023-05-19T09:15:56;97533.72;;;15.28;59.18
70968;BME280;58629;48.808;8.820;2023-05-19T09:18:25;97527.41;;;14.97;57.51
70968;BME280;58629;48.808;8.820;2023-05-19T09:20:58;97532.59;;;14.88;58.60
70968;BME280;58629;48.808;8.820;2023-05-19T09:23:26;97536.44;;;14.87;59.32
70968;BME280;58629;48.808;8.820;2023-05-19T09:26:03;97540.19;;;14.89;59.76
70968;BME280;58629;48.808;8.820;2023-05-19T09:28:33;97532.97;;;15.02;58.84
70968;BME280;58629;48.808;8.820;2023-05-19T09:31:06;97537.00;;;14.94;57.46
70968;BME280;58629;48.808;8.820;2023-05-19T09:33:34;97525.91;;;14.96;57.67
70968;BME280;58629;48.808;8.820;2023-05-19T09:36:00;97524.00;;;15.21;57.25
70968;BME280;58629;48.808;8.820;2023-05-19T09:38:25;97529.66;;;15.11;57.02
70968;BME280;58629;48.808;8.820;2023-05-19T09:40:52;97513.75;;;15.20;56.58
70968;BME280;58629;48.808;8.820;2023-05-19T09:43:17;97520.03;;;15.13;55.52
70968;BME280;58629;48.808;8.820;2023-05-19T09:45:43;97512.69;;;15.17;56.97
70968;BME280;58629;48.808;8.820;2023-05-19T09:48:08;97517.81;;;15.24;56.95
70968;BME280;58629;48.808;8.820;2023-05-19T09:50:34;97517.41;;;15.38;57.10
70968;BME280;58629;48.808;8.820;2023-05-19T09:53:00;97522.53;;;15.45;56.45
70968;BME280;58629;48.808;8.820;2023-05-19T09:55:27;97524.22;;;15.27;56.36
70968;BME280;58629;48.808;8.820;2023-05-19T09:57:56;97520.38;;;15.40;57.24
70968;BME280;58629;48.808;8.820;2023-05-19T10:00:21;97515.88;;;15.37;56.83
70968;BME280;58629;48.808;8.820;2023-05-19T10:02:47;97520.38;;;15.40;56.06
70968;BME280;58629;48.808;8.820;2023-05-19T10:05:18;97520.16;;;15.22;55.13
70968;BME280;58629;48.808;8.820;2023-05-19T10:07:49;97524.56;;;15.29;56.10
70968;BME280;58629;48.808;8.820;2023-05-19T10:10:16;97521.97;;;15.25;56.16
70968;BME280;58629;48.808;8.820;2023-05-19T10:12:42;97519.19;;;15.41;56.68
70968;BME280;58629;48.808;8.820;2023-05-19T10:15:12;97519.97;;;15.54;57.01
70968;BME280;58629;48.808;8.820;2023-05-19T10:17:38;97521.34;;;15.59;57.35
70968;BME280;58629;48.808;8.820;2023-05-19T10:20:12;97513.13;;;15.66;56.33
70968;BME280;58629;48.808;8.820;2023-05-19T10:22:39;97514.84;;;15.73;55.16
70968;BME280;58629;48.808;8.820;2023-05-19T10:25:05;97518.22;;;15.86;55.06
70968;BME280;58629;48.808;8.820;2023-05-19T10:27:33;97511.66;;;15.99;55.95
70968;BME280;58629;48.808;8.820;2023-05-19T10:30:05;97515.91;;;16.09;55.79
70968;BME280;58629;48.808;8.820;2023-05-19T10:32:31;97512.31;;;15.91;54.88
70968;BME280;58629;48.808;8.820;2023-05-19T10:40:31;97515.19;;;15.96;55.45
70968;BME280;58629;48.808;8.820;2023-05-19T10:43:29;97511.97;;;16.01;55.05
70968;BME280;58629;48.808;8.820;2023-05-19T10:46:00;97498.09;;;15.94;52.93
70968;BME280;58629;48.808;8.820;2023-05-19T10:48:25;97509.81;;;16.09;53.91
70968;BME280;58629;48.808;8.820;2023-05-19T10:50:55;97500.50;;;16.35;54.23
70968;BME280;58629;48.808;8.820;2023-05-19T10:53:20;97506.22;;;16.46;52.13
70968;BME280;58629;48.808;8.820;2023-05-19T10:55:51;97514.09;;;16.62;52.93
70968;BME280;58629;48.808;8.820;2023-05-19T11:01:16;97523.88;;;16.22;51.80
70968;BME280;58629;48.808;8.820;2023-05-19T11:03:53;97511.19;;;16.13;53.70
70968;BME280;58629;48.808;8.820;2023-05-19T11:06:20;97515.66;;;16.16;53.33
70968;BME280;58629;48.808;8.820;2023-05-19T11:08:46;97514.25;;;16.46;53.14
70968;BME280;58629;48.808;8.820;2023-05-19T11:11:14;97512.84;;;16.54;53.22
70968;BME280;58629;48.808;8.820;2023-05-19T11:13:49;97517.34;;;16.44;52.38
70968;BME280;58629;48.808;8.820;2023-05-19T11:16:17;97515.25;;;16.39;53.66
70968;BME280;58629;48.808;8.820;2023-05-19T11:18:47;97511.97;;;16.35;53.39
70968;BME280;58629;48.808;8.820;2023-05-19T11:21:12;97514.38;;;16.42;53.04
70968;BME280;58629;48.808;8.820;2023-05-19T11:23:37;97517.13;;;16.30;53.93
70968;BME280;58629;48.808;8.820;2023-05-19T11:26:06;97506.97;;;16.25;53.66
70968;BME280;58629;48.808;8.820;2023-05-19T11:28:33;97511.66;;;16.33;53.08
70968;BME280;58629;48.808;8.820;2023-05-19T11:30:59;97511.31;;;16.10;53.53
70968;BME280;58629;48.808;8.820;2023-05-19T11:33:25;97512.88;;;16.20;54.35
70968;BME280;58629;48.808;8.820;2023-05-19T11:35:52;97510.22;;;16.20;54.13
70968;BME280;58629;48.808;8.820;2023-05-19T11:38:18;97503.28;;;16.10;54.79
70968;BME280;58629;48.808;8.820;2023-05-19T11:40:43;97503.44;;;15.94;54.08
70968;BME280;58629;48.808;8.820;2023-05-19T11:43:09;97501.53;;;15.94;55.39
70968;BME280;58629;48.808;8.820;2023-05-19T11:45:34;97501.25;;;15.67;55.42
70968;BME280;58629;48.808;8.820;2023-05-19T11:48:00;97497.34;;;15.46;55.34
70968;BME280;58629;48.808;8.820;2023-05-19T11:50:27;97495.41;;;15.47;56.12
70968;BME280;58629;48.808;8.820;2023-05-19T11:52:53;97491.03;;;15.53;56.16
70968;BME280;58629;48.808;8.820;2023-05-19T11:55:20;97488.59;;;15.58;55.09
70968;BME280;58629;48.808;8.820;2023-05-19T12:00:27;97488.03;;;15.38;54.86
70968;BME280;58629;48.808;8.820;2023-05-19T12:02:53;97492.13;;;15.43;56.52
70968;BME280;58629;48.808;8.820;2023-05-19T12:05:23;97501.25;;;15.29;55.62
70968;BME280;58629;48.808;8.820;2023-05-19T12:07:50;97496.16;;;15.35;57.95
70968;BME280;58629;48.808;8.820;2023-05-19T12:10:26;97503.53;;;15.18;56.70
70968;BME280;58629;48.808;8.820;2023-05-19T12:12:55;97498.19;;;15.18;56.72
70968;BME280;58629;48.808;8.820;2023-05-19T12:15:22;97502.03;;;15.30;57.34
70968;BME280;58629;48.808;8.820;2023-05-19T12:17:55;97497.88;;;15.16;56.30
70968;BME280;58629;48.808;8.820;2023-05-19T12:20:22;97508.84;;;15.18;57.40
70968;BME280;58629;48.808;8.820;2023-05-19T12:22:48;97504.16;;;15.22;56.25
70968;BME280;58629;48.808;8.820;2023-05-19T12:25:17;97506.41;;;15.11;56.79
70968;BME280;58629;48.808;8.820;2023-05-19T12:27:43;97499.25;;;15.21;57.71
70968;BME280;58629;48.808;8.820;2023-05-19T12:30:10;97498.19;;;15.18;58.15
70968;BME280;58629;48.808;8.820;2023-05-19T12:32:36;97507.78;;;15.16;56.66
70968;BME280;58629;48.808;8.820;2023-05-19T12:35:03;97511.53;;;15.18;58.32
70968;BME280;58629;48.808;8.820;2023-05-19T12:37:30;97512.28;;;15.19;58.64
70968;BME280;58629;48.808;8.820;2023-05-19T12:39:56;97516.56;;;15.29;59.01
70968;BME280;58629;48.808;8.820;2023-05-19T12:42:22;97506.72;;;15.26;59.21
70968;BME280;58629;48.808;8.820;2023-05-19T12:44:51;97498.31;;;15.15;56.80
70968;BME280;58629;48.808;8.820;2023-05-19T12:47:19;97506.31;;;15.15;58.18
70968;BME280;58629;48.808;8.820;2023-05-19T12:52:21;97508.75;;;15.09;58.25
70968;BME280;58629;48.808;8.820;2023-05-19T12:54:48;97508.84;;;15.06;57.79
70968;BME280;58629;48.808;8.820;2023-05-19T12:57:15;97501.47;;;15.10;58.31
70968;BME280;58629;48.808;8.820;2023-05-19T12:59:41;97496.91;;;15.10;57.58
70968;BME280;58629;48.808;8.820;2023-05-19T13:02:06;97494.13;;;15.01;57.98
70968;BME280;58629;48.808;8.820;2023-05-19T13:04:32;97499.56;;;14.98;58.61
70968;BME280;58629;48.808;8.820;2023-05-19T13:06:57;97503.16;;;14.78;58.35
70968;BME280;58629;48.808;8.820;2023-05-19T13:09:22;97507.72;;;14.65;58.88
70968;BME280;58629;48.808;8.820;2023-05-19T13:11:47;97500.34;;;14.57;59.70
70968;BME280;58629;48.808;8.820;2023-05-19T13:14:16;97508.88;;;14.64;59.63
70968;BME280;58629;48.808;8.820;2023-05-19T13:16:45;97500.22;;;14.48;60.07
70968;BME280;58629;48.808;8.820;2023-05-19T13:19:16;97503.72;;;14.45;61.52
70968;BME280;58629;48.808;8.820;2023-05-19T13:21:42;97506.59;;;14.38;61.19
70968;BME280;58629;48.808;8.820;2023-05-19T13:24:07;97502.63;;;14.30;61.89